sensor_id;sensor_type;location;lat;lon;timestamp;pressure;altitude;pressure_sealevel;temperature;humidity
11936;BME280;6027;48.576;9.180;2022-10-30T00:00:48;97326.88;;;14.89;100.00
11936;BME280;6027;48.576;9.180;2022-10-30T00:03:14;97324.97;;;14.83;100.00
11936;BME280;6027;48.576;9.180;2022-10-30T00:05:48;97318.19;;;14.74;100.00
11936;BME280;6027;48.576;9.180;2022-10-30T00:08:16;97315.75;;;14.79;100.00
11936;BME280;6027;48.576;9.180;2022-10-30T00:10:43;97316.53;;;14.73;100.00
11936;BME280;6027;48.576;9.180;2022-10-30T00:13:09;97318.97;;;14.68;100.00
11936;BME280;6027;48.576;9.180;2022-10-30T00:15:35;97322.66;;;14.67;100.00
11936;BME280;6027;48.576;9.180;2022-10-30T00:18:02;97314.47;;;14.68;100.00
11936;BME280;6027;48.576;9.180;2022-10-30T00:20:27;97320.22;;;14.72;100.00
11936;BME280;6027;48.576;9.180;2022-10-30T00:22:53;97317.78;;;14.77;100.00
11936;BME280;6027;48.576;9.180;2022-10-30T00:25:18;97312.81;;;14.67;100.00
11936;BME280;6027;48.576;9.180;2022-10-30T00:27:44;97315.09;;;14.70;100.00
11936;BME280;6027;48.576;9.180;2022-10-30T00:30:10;97311.16;;;14.60;100.00
11936;BME280;6027;48.576;9.180;2022-10-30T00:32:35;97316.38;;;14.46;100.00
11936;BME280;6027;48.576;9.180;2022-10-30T00:35:01;97305.19;;;14.30;100.00
11936;BME280;6027;48.576;9.180;2022-10-30T00:37:26;97301.88;;;14.28;100.00
11936;BME280;6027;48.576;9.180;2022-10-30T00:39:52;97294.97;;;14.33;100.00
11936;BME280;6027;48.576;9.180;2022-10-30T00:42:17;97299.75;;;14.44;100.00
11936;BME280;6027;48.576;9.180;2022-10-30T00:47:31;97298.75;;;14.45;100.00
11936;BME280;6027;48.576;9.180;2022-10-30T00:50:02;97295.69;;;14.48;100.00
11936;BME280;6027;48.576;9.180;2022-10-30T00:52:33;97303.09;;;14.53;100.00
11936;BME280;6027;48.576;9.180;2022-10-30T00:55:05;97294.19;;;14.39;100.00
11936;BME280;6027;48.576;9.180;2022-10-30T00:57:31;97292.41;;;14.46;100.00
11936;BME280;6027;48.576;9.180;2022-10-30T00:59:58;97296.31;;;14.50;100.00
11936;BME280;6027;48.576;9.180;2022-10-30T01:02:24;97296.31;;;14.50;100.00
11936;BME280;6027;48.576;9.180;2022-10-30T01:04:52;97294.28;;;14.52;100.00
11936;BME280;6027;48.576;9.180;2022-10-30T01:07:19;97291.44;;;14.54;100.00
11936;BME280;6027;48.576;9.180;2022-10-30T01:09:45;97299.81;;;14.51;100.00
11936;BME280;6027;48.576;9.180;2022-10-30T01:12:11;97281.16;;;14.51;100.00
11936;BME280;6027;48.576;9.180;2022-10-30T01:14:41;97282.06;;;14.37;100.00
11936;BME280;6027;48.576;9.180;2022-10-30T01:23:19;97281.69;;;14.40;100.00
11936;BME280;6027;48.576;9.180;2022-10-30T01:25:55;97273.53;;;14.41;100.00
11936;BME280;6027;48.576;9.180;2022-10-30T01:31:49;97283.19;;;14.42;100.00
11936;BME280;6027;48.576;9.180;2022-10-30T01:34:17;97282.72;;;14.39;100.00
11936;BME280;6027;48.576;9.180;2022-10-30T01:36:56;97283.28;;;14.34;100.00
11936;BME280;6027;48.576;9.180;2022-10-30T01:39:34;97278.09;;;14.26;100.00
11936;BME280;6027;48.576;9.180;2022-10-30T01:53:01;97274.66;;;14.32;100.00
11936;BME280;6027;48.576;9.180;2022-10-30T01:55:42;97277.78;;;14.36;100.00
11936;BME280;6027;48.576;9.180;2022-10-30T01:58:22;97277.34;;;14.32;100.00
11936;BME280;6027;48.576;9.180;2022-10-30T02:00:56;97270.75;;;14.28;100.00
11936;BME280;6027;48.576;9.180;2022-10-30T02:05:51;97268.75;;;14.37;100.00
11936;BME280;6027;48.576;9.180;2022-10-30T02:08:18;97260.53;;;14.32;100.00
11936;BME280;6027;48.576;9.180;2022-10-30T02:10:46;97254.56;;;14.30;100.00
11936;BME280;6027;48.576;9.180;2022-10-30T02:13:12;97250.66;;;14.26;100.00
11936;BME280;6027;48.576;9.180;2022-10-30T02:15:39;97258.25;;;14.29;100.00
11936;BME280;6027;48.576;9.180;2022-10-30T02:18:05;97259.28;;;14.28;100.00
11936;BME280;6027;48.576;9.180;2022-10-30T02:20:30;97251.00;;;14.16;100.00
11936;BME280;6027;48.576;9.180;2022-10-30T02:22:56;97260.78;;;14.09;100.00
11936;BME280;6027;48.576;9.180;2022-10-30T02:25:21;97250.50;;;13.99;100.00
11936;BME280;6027;48.576;9.180;2022-10-30T02:27:47;97262.59;;;14.02;100.00
11936;BME280;6027;48.576;9.180;2022-10-30T02:30:13;97257.91;;;14.04;100.00
11936;BME280;6027;48.576;9.180;2022-10-30T02:32:38;97255.84;;;14.06;100.00
11936;BME280;6027;48.576;9.180;2022-10-30T02:35:04;97264.06;;;14.04;100.00
11936;BME280;6027;48.576;9.180;2022-10-30T02:37:30;97260.31;;;13.99;100.00
11936;BME280;6027;48.576;9.180;2022-10-30T02:39:57;97256.78;;;13.92;100.00
11936;BME280;6027;48.576;9.180;2022-10-30T02:42:23;97263.56;;;13.94;100.00
11936;BME280;6027;48.576;9.180;2022-10-30T02:44:48;97259.25;;;13.93;100.00
11936;BME280;6027;48.576;9.180;2022-10-30T02:47:14;97255.94;;;13.85;100.00
11936;BME280;6027;48.576;9.180;2022-10-30T02:49:40;97255.03;;;13.77;100.00
11936;BME280;6027;48.576;9.180;2022-10-30T02:52:06;97250.03;;;13.68;100.00
11936;BME280;6027;48.576;9.180;2022-10-30T02:54:33;97245.06;;;13.58;100.00
11936;BME280;6027;48.576;9.180;2022-10-30T02:56:58;97236.44;;;13.56;100.00
11936;BME280;6027;48.576;9.180;2022-10-30T02:59:23;97242.03;;;13.61;100.00
11936;BME280;6027;48.576;9.180;2022-10-30T03:01:49;97239.34;;;13.61;100.00
11936;BME280;6027;48.576;9.180;2022-10-30T03:04:14;97245.94;;;13.65;100.00
11936;BME280;6027;48.576;9.180;2022-10-30T03:06:40;97249.84;;;13.69;100.00
11936;BME280;6027;48.576;9.180;2022-10-30T03:09:05;97247.63;;;13.73;100.00
11936;BME280;6027;48.576;9.180;2022-10-30T03:11:32;97251.75;;;13.75;100.00
11936;BME280;6027;48.576;9.180;2022-10-30T03:13:58;97248.13;;;13.83;100.00
11936;BME280;6027;48.576;9.180;2022-10-30T03:16:25;97248.00;;;13.70;100.00
11936;BME280;6027;48.576;9.180;2022-10-30T03:18:51;97251.66;;;13.62;100.00
11936;BME280;6027;48.576;9.180;2022-10-30T03:21:19;97248.94;;;13.56;100.00
11936;BME280;6027;48.576;9.180;2022-10-30T03:23:45;97257.47;;;13.51;100.00
11936;BME280;6027;48.576;9.180;2022-10-30T03:26:11;97248.03;;;13.48;100.00
11936;BME280;6027;48.576;9.180;2022-10-30T03:28:36;97247.44;;;13.46;100.00
11936;BME280;6027;48.576;9.180;2022-10-30T03:31:05;97245.81;;;13.52;100.00
11936;BME280;6027;48.576;9.180;2022-10-30T03:33:31;97245.19;;;13.50;100.00
11936;BME280;6027;48.576;9.180;2022-10-30T03:35:57;97248.19;;;13.40;100.00
11936;BME280;6027;48.576;9.180;2022-10-30T03:38:23;97250.13;;;13.32;100.00
11936;BME280;6027;48.576;9.180;2022-10-30T03:40:49;97258.63;;;13.42;100.00
11936;BME280;6027;48.576;9.180;2022-10-30T03:43:14;97253.75;;;13.45;100.00
11936;BME280;6027;48.576;9.180;2022-10-30T03:45:48;97255.72;;;13.37;100.00
11936;BME280;6027;48.576;9.180;2022-10-30T03:48:14;97248.84;;;13.28;100.00
11936;BME280;6027;48.576;9.180;2022-10-30T03:50:40;97243.03;;;13.18;100.00
11936;BME280;6027;48.576;9.180;2022-10-30T03:53:05;97257.16;;;13.39;100.00
11936;BME280;6027;48.576;9.180;2022-10-30T03:55:30;97251.97;;;13.31;100.00
11936;BME280;6027;48.576;9.180;2022-10-30T03:57:56;97255.63;;;13.30;100.00
11936;BME280;6027;48.576;9.180;2022-10-30T04:00:21;97254.19;;;13.28;100.00
11936;BME280;6027;48.576;9.180;2022-10-30T04:02:48;97248.44;;;13.09;100.00
11936;BME280;6027;48.576;9.180;2022-10-30T04:05:15;97259.28;;;13.08;100.00
11936;BME280;6027;48.576;9.180;2022-10-30T04:07:41;97254.97;;;13.07;100.00
11936;BME280;6027;48.576;9.180;2022-10-30T04:10:07;97261.47;;;13.19;100.00
11936;BME280;6027;48.576;9.180;2022-10-30T04:12:33;97259.25;;;13.23;100.00
11936;BME280;6027;48.576;9.180;2022-10-30T04:14:59;97261.72;;;13.24;100.00
11936;BME280;6027;48.576;9.180;2022-10-30T04:17:24;97262.94;;;13.22;100.00
11936;BME280;6027;48.576;9.180;2022-10-30T04:19:49;97262.28;;;13.20;100.00
11936;BME280;6027;48.576;9.180;2022-10-30T04:22:15;97260.50;;;13.05;100.00
11936;BME280;6027;48.576;9.180;2022-10-30T04:24:40;97255.28;;;12.97;100.00
11936;BME280;6027;48.576;9.180;2022-10-30T04:27:06;97262.56;;;12.89;100.00
11936;BME280;6027;48.576;9.180;2022-10-30T04:29:31;97254.53;;;13.03;100.00
11936;BME280;6027;48.576;9.180;2022-10-30T04:31:57;97261.03;;;13.01;100.00
11936;BME280;6027;48.576;9.180;2022-10-30T04:34:22;97266.34;;;13.16;100.00
11936;BME280;6027;48.576;9.180;2022-10-30T04:36:47;97266.84;;;13.11;100.00
11936;BME280;6027;48.576;9.180;2022-10-30T04:39:13;97266.69;;;13.12;100.00
11936;BME280;6027;48.576;9.180;2022-10-30T04:41:39;97275.53;;;12.98;100.00
11936;BME280;6027;48.576;9.180;2022-10-30T04:44:05;97270.06;;;12.85;100.00
11936;BME280;6027;48.576;9.180;2022-10-30T04:46:31;97262.75;;;12.72;100.00
11936;BME280;6027;48.576;9.180;2022-10-30T04:48:57;97276.31;;;12.77;100.00
11936;BME280;6027;48.576;9.180;2022-10-30T04:51:22;97264.56;;;12.72;100.00
11936;BME280;6027;48.576;9.180;2022-10-30T04:53:48;97267.22;;;12.72;100.00
11936;BME280;6027;48.576;9.180;2022-10-30T04:56:14;97260.22;;;12.64;100.00
11936;BME280;6027;48.576;9.180;2022-10-30T04:58:40;97262.94;;;12.56;100.00
11936;BME280;6027;48.576;9.180;2022-10-30T05:01:06;97267.38;;;12.49;100.00
11936;BME280;6027;48.576;9.180;2022-10-30T05:03:32;97270.03;;;12.49;100.00
11936;BME280;6027;48.576;9.180;2022-10-30T05:06:03;97265.16;;;12.53;100.00
11936;BME280;6027;48.576;9.180;2022-10-30T05:08:30;97267.28;;;12.42;100.00
11936;BME280;6027;48.576;9.180;2022-10-30T05:10:56;97262.06;;;12.34;100.00
11936;BME280;6027;48.576;9.180;2022-10-30T05:13:22;97260.50;;;12.40;100.00
11936;BME280;6027;48.576;9.180;2022-10-30T05:15:47;97257.13;;;12.31;100.00
11936;BME280;6027;48.576;9.180;2022-10-30T05:18:13;97272.03;;;12.18;100.00
11936;BME280;6027;48.576;9.180;2022-10-30T05:20:39;97259.13;;;12.15;100.00
11936;BME280;6027;48.576;9.180;2022-10-30T05:23:04;97257.69;;;12.27;100.00
11936;BME280;6027;48.576;9.180;2022-10-30T05:25:30;97254.91;;;12.20;100.00
11936;BME280;6027;48.576;9.180;2022-10-30T05:28:00;97255.81;;;12.13;100.00
11936;BME280;6027;48.576;9.180;2022-10-30T05:30:27;97257.47;;;12.14;100.00
11936;BME280;6027;48.576;9.180;2022-10-30T05:33:03;97251.09;;;12.23;100.00
11936;BME280;6027;48.576;9.180;2022-10-30T05:35:30;97248.72;;;12.28;100.00
11936;BME280;6027;48.576;9.180;2022-10-30T05:37:59;97255.38;;;12.24;100.00
11936;BME280;6027;48.576;9.180;2022-10-30T05:40:25;97258.84;;;12.39;100.00
11936;BME280;6027;48.576;9.180;2022-10-30T05:42:51;97254.25;;;12.33;100.00
11936;BME280;6027;48.576;9.180;2022-10-30T05:45:17;97264.81;;;12.12;100.00
11936;BME280;6027;48.576;9.180;2022-10-30T05:47:43;97256.22;;;12.09;100.00
11936;BME280;6027;48.576;9.180;2022-10-30T05:50:09;97255.19;;;12.25;100.00
11936;BME280;6027;48.576;9.180;2022-10-30T05:52:38;97261.34;;;12.26;100.00
11936;BME280;6027;48.576;9.180;2022-10-30T05:55:03;97267.19;;;12.21;100.00
11936;BME280;6027;48.576;9.180;2022-10-30T05:57:29;97262.53;;;12.23;100.00
11936;BME280;6027;48.576;9.180;2022-10-30T05:59:57;97262.16;;;12.26;100.00
11936;BME280;6027;48.576;9.180;2022-10-30T06:02:22;97270.13;;;12.26;100.00
11936;BME280;6027;48.576;9.180;2022-10-30T06:04:48;97267.81;;;12.38;100.00
11936;BME280;6027;48.576;9.180;2022-10-30T06:07:13;97268.13;;;12.28;100.00
11936;BME280;6027;48.576;9.180;2022-10-30T06:09:39;97273.13;;;12.23;100.00
11936;BME280;6027;48.576;9.180;2022-10-30T06:12:04;97269.00;;;12.21;100.00
11936;BME280;6027;48.576;9.180;2022-10-30T06:14:30;97268.31;;;12.12;100.00
11936;BME280;6027;48.576;9.180;2022-10-30T06:16:56;97275.16;;;12.21;100.00
11936;BME280;6027;48.576;9.180;2022-10-30T06:19:21;97278.09;;;12.26;100.00
11936;BME280;6027;48.576;9.180;2022-10-30T06:21:46;97276.88;;;12.14;100.00
11936;BME280;6027;48.576;9.180;2022-10-30T06:24:12;97285.13;;;12.04;100.00
11936;BME280;6027;48.576;9.180;2022-10-30T06:26:38;97276.69;;;12.16;100.00
11936;BME280;6027;48.576;9.180;2022-10-30T06:29:04;97273.78;;;12.10;100.00
11936;BME280;6027;48.576;9.180;2022-10-30T06:31:29;97273.13;;;12.08;100.00
11936;BME280;6027;48.576;9.180;2022-10-30T06:33:54;97274.88;;;12.16;100.00
11936;BME280;6027;48.576;9.180;2022-10-30T06:36:20;97273.41;;;12.14;100.00
11936;BME280;6027;48.576;9.180;2022-10-30T06:38:46;97279.28;;;12.09;100.00
11936;BME280;6027;48.576;9.180;2022-10-30T06:41:11;97272.56;;;12.13;100.00
11936;BME280;6027;48.576;9.180;2022-10-30T06:43:37;97271.19;;;12.02;100.00
11936;BME280;6027;48.576;9.180;2022-10-30T06:46:02;97270.03;;;12.05;100.00
11936;BME280;6027;48.576;9.180;2022-10-30T06:48:27;97271.22;;;12.17;100.00
11936;BME280;6027;48.576;9.180;2022-10-30T06:50:54;97270.13;;;12.12;100.00
11936;BME280;6027;48.576;9.180;2022-10-30T06:53:20;97272.22;;;12.01;100.00
11936;BME280;6027;48.576;9.180;2022-10-30T06:56:01;97275.31;;;12.05;100.00
11936;BME280;6027;48.576;9.180;2022-10-30T06:58:28;97276.78;;;11.93;100.00
11936;BME280;6027;48.576;9.180;2022-10-30T07:00:54;97279.56;;;11.76;100.00
11936;BME280;6027;48.576;9.180;2022-10-30T07:03:20;97273.78;;;11.73;100.00
11936;BME280;6027;48.576;9.180;2022-10-30T07:05:45;97273.91;;;11.80;100.00
11936;BME280;6027;48.576;9.180;2022-10-30T07:08:11;97272.44;;;11.77;100.00
11936;BME280;6027;48.576;9.180;2022-10-30T07:10:37;97274.97;;;11.70;100.00
11936;BME280;6027;48.576;9.180;2022-10-30T07:13:02;97278.88;;;11.74;100.00
11936;BME280;6027;48.576;9.180;2022-10-30T07:15:28;97283.88;;;11.77;100.00
11936;BME280;6027;48.576;9.180;2022-10-30T07:17:58;97280.72;;;11.74;100.00
11936;BME280;6027;48.576;9.180;2022-10-30T07:20:26;97279.84;;;11.82;100.00
11936;BME280;6027;48.576;9.180;2022-10-30T07:22:52;97287.06;;;11.73;100.00
11936;BME280;6027;48.576;9.180;2022-10-30T07:25:18;97275.19;;;11.84;100.00
11936;BME280;6027;48.576;9.180;2022-10-30T07:27:46;97291.13;;;11.84;100.00
11936;BME280;6027;48.576;9.180;2022-10-30T07:30:13;97278.31;;;11.87;100.00
11936;BME280;6027;48.576;9.180;2022-10-30T07:32:40;97274.19;;;11.85;100.00
11936;BME280;6027;48.576;9.180;2022-10-30T07:35:06;97283.53;;;11.95;100.00
11936;BME280;6027;48.576;9.180;2022-10-30T07:37:32;97286.09;;;11.89;100.00
11936;BME280;6027;48.576;9.180;2022-10-30T07:39:58;97281.69;;;11.96;100.00
11936;BME280;6027;48.576;9.180;2022-10-30T07:42:23;97278.16;;;12.03;100.00
11936;BME280;6027;48.576;9.180;2022-10-30T07:44:49;97274.78;;;12.09;100.00
11936;BME280;6027;48.576;9.180;2022-10-30T07:47:14;97281.47;;;12.05;100.00
11936;BME280;6027;48.576;9.180;2022-10-30T07:49:40;97282.81;;;12.16;100.00
11936;BME280;6027;48.576;9.180;2022-10-30T07:52:05;97277.97;;;12.05;100.00
11936;BME280;6027;48.576;9.180;2022-10-30T07:54:31;97274.22;;;12.14;100.00
11936;BME280;6027;48.576;9.180;2022-10-30T07:56:56;97286.22;;;12.25;100.00
11936;BME280;6027;48.576;9.180;2022-10-30T07:59:24;97279.28;;;12.38;100.00
11936;BME280;6027;48.576;9.180;2022-10-30T08:01:49;97282.22;;;12.43;100.00
11936;BME280;6027;48.576;9.180;2022-10-30T08:04:15;97286.50;;;12.44;100.00
11936;BME280;6027;48.576;9.180;2022-10-30T08:06:41;97283.75;;;12.53;100.00
11936;BME280;6027;48.576;9.180;2022-10-30T08:09:06;97287.97;;;12.62;100.00
11936;BME280;6027;48.576;9.180;2022-10-30T08:11:32;97285.22;;;12.70;100.00
11936;BME280;6027;48.576;9.180;2022-10-30T08:13:57;97289.78;;;12.76;100.00
11936;BME280;6027;48.576;9.180;2022-10-30T08:16:23;97283.56;;;12.69;100.00
11936;BME280;6027;48.576;9.180;2022-10-30T08:18:49;97286.94;;;12.77;100.00
11936;BME280;6027;48.576;9.180;2022-10-30T08:21:15;97287.84;;;12.85;100.00
11936;BME280;6027;48.576;9.180;2022-10-30T08:23:40;97290.09;;;13.02;100.00
11936;BME280;6027;48.576;9.180;2022-10-30T08:26:06;97283.22;;;13.08;100.00
11936;BME280;6027;48.576;9.180;2022-10-30T08:28:31;97286.78;;;13.00;100.00
11936;BME280;6027;48.576;9.180;2022-10-30T08:30:58;97282.16;;;13.09;100.00
11936;BME280;6027;48.576;9.180;2022-10-30T08:33:23;97288.94;;;13.11;100.00
11936;BME280;6027;48.576;9.180;2022-10-30T08:35:51;97279.75;;;13.29;100.00
11936;BME280;6027;48.576;9.180;2022-10-30T08:38:17;97281.47;;;13.36;100.00
11936;BME280;6027;48.576;9.180;2022-10-30T08:40:43;97278.00;;;13.36;100.00
11936;BME280;6027;48.576;9.180;2022-10-30T08:43:08;97280.91;;;13.41;100.00
11936;BME280;6027;48.576;9.180;2022-10-30T08:45:34;97283.84;;;13.46;100.00
11936;BME280;6027;48.576;9.180;2022-10-30T08:48:01;97284.72;;;13.53;100.00
11936;BME280;6027;48.576;9.180;2022-10-30T08:50:30;97282.31;;;13.58;100.00
11936;BME280;6027;48.576;9.180;2022-10-30T08:52:59;97278.09;;;13.70;100.00
11936;BME280;6027;48.576;9.180;2022-10-30T08:55:26;97278.34;;;13.75;100.00
11936;BME280;6027;48.576;9.180;2022-10-30T08:57:51;97277.53;;;13.75;100.00
11936;BME280;6027;48.576;9.180;2022-10-30T09:00:16;97271.69;;;13.86;100.00
11936;BME280;6027;48.576;9.180;2022-10-30T09:02:42;97276.28;;;13.99;100.00
11936;BME280;6027;48.576;9.180;2022-10-30T09:05:09;97280.25;;;14.09;100.00
11936;BME280;6027;48.576;9.180;2022-10-30T09:07:35;97273.13;;;14.16;100.00
11936;BME280;6027;48.576;9.180;2022-10-30T09:10:00;97271.63;;;14.35;100.00
11936;BME280;6027;48.576;9.180;2022-10-30T09:12:26;97265.53;;;14.41;100.00
11936;BME280;6027;48.576;9.180;2022-10-30T09:14:51;97263.09;;;14.46;100.00
11936;BME280;6027;48.576;9.180;2022-10-30T09:17:17;97262.34;;;14.59;100.00
11936;BME280;6027;48.576;9.180;2022-10-30T09:19:42;97264.00;;;14.67;100.00
11936;BME280;6027;48.576;9.180;2022-10-30T09:22:07;97277.63;;;14.85;100.00
11936;BME280;6027;48.576;9.180;2022-10-30T09:24:33;97274.16;;;14.91;100.00
11936;BME280;6027;48.576;9.180;2022-10-30T09:26:58;97274.41;;;15.03;100.00
11936;BME280;6027;48.576;9.180;2022-10-30T09:29:24;97280.38;;;15.11;100.00
11936;BME280;6027;48.576;9.180;2022-10-30T09:31:49;97280.63;;;15.23;100.00
11936;BME280;6027;48.576;9.180;2022-10-30T09:34:15;97274.72;;;15.34;100.00
11936;BME280;6027;48.576;9.180;2022-10-30T09:36:40;97275.72;;;15.40;100.00
11936;BME280;6027;48.576;9.180;2022-10-30T09:39:09;97279.91;;;15.56;100.00
11936;BME280;6027;48.576;9.180;2022-10-30T09:44:51;97280.31;;;15.85;100.00
11936;BME280;6027;48.576;9.180;2022-10-30T10:04:22;97278.31;;;16.85;100.00
11936;BME280;6027;48.576;9.180;2022-10-30T10:06:59;97276.25;;;16.87;100.00
11936;BME280;6027;48.576;9.180;2022-10-30T10:09:28;97273.13;;;16.97;100.00
11936;BME280;6027;48.576;9.180;2022-10-30T10:11:59;97281.31;;;17.02;100.00
11936;BME280;6027;48.576;9.180;2022-10-30T10:14:29;97287.44;;;17.15;100.00
11936;BME280;6027;48.576;9.180;2022-10-30T10:16:59;97283.22;;;17.33;100.00
11936;BME280;6027;48.576;9.180;2022-10-30T10:19:54;97284.31;;;17.56;100.00
11936;BME280;6027;48.576;9.180;2022-10-30T10:25:25;97289.19;;;17.98;100.00
11936;BME280;6027;48.576;9.180;2022-10-30T10:28:00;97286.69;;;18.03;100.00
11936;BME280;6027;48.576;9.180;2022-10-30T10:30:40;97288.72;;;18.07;98.97
11936;BME280;6027;48.576;9.180;2022-10-30T10:36:15;97280.41;;;18.34;97.80
11936;BME280;6027;48.576;9.180;2022-10-30T10:41:35;97268.66;;;18.35;94.00
11936;BME280;6027;48.576;9.180;2022-10-30T10:52:24;97263.88;;;18.61;91.02
11936;BME280;6027;48.576;9.180;2022-10-30T10:54:56;97263.09;;;18.73;91.60
11936;BME280;6027;48.576;9.180;2022-10-30T10:57:33;97261.78;;;18.82;89.73
11936;BME280;6027;48.576;9.180;2022-10-30T11:00:06;97258.50;;;18.80;90.01
11936;BME280;6027;48.576;9.180;2022-10-30T11:05:20;97253.34;;;18.96;85.82
11936;BME280;6027;48.576;9.180;2022-10-30T11:07:49;97257.44;;;18.99;86.85
11936;BME280;6027;48.576;9.180;2022-10-30T11:10:18;97256.44;;;19.12;85.21
11936;BME280;6027;48.576;9.180;2022-10-30T11:12:43;97257.78;;;19.21;85.22
11936;BME280;6027;48.576;9.180;2022-10-30T11:15:57;97244.59;;;19.31;84.84
11936;BME280;6027;48.576;9.180;2022-10-30T11:18:24;97250.09;;;19.54;82.57
11936;BME280;6027;48.576;9.180;2022-10-30T11:21:02;97249.50;;;19.64;81.48
11936;BME280;6027;48.576;9.180;2022-10-30T11:23:39;97248.69;;;19.63;79.05
11936;BME280;6027;48.576;9.180;2022-10-30T11:28:49;97246.63;;;19.77;83.27
11936;BME280;6027;48.576;9.180;2022-10-30T11:33:42;97245.59;;;19.78;79.16
11936;BME280;6027;48.576;9.180;2022-10-30T11:36:08;97237.63;;;19.83;78.72
11936;BME280;6027;48.576;9.180;2022-10-30T11:38:34;97230.38;;;19.84;76.13
11936;BME280;6027;48.576;9.180;2022-10-30T11:41:00;97237.53;;;19.78;77.98
11936;BME280;6027;48.576;9.180;2022-10-30T11:43:26;97238.44;;;19.84;75.78
11936;BME280;6027;48.576;9.180;2022-10-30T11:45:53;97231.78;;;19.86;76.97
11936;BME280;6027;48.576;9.180;2022-10-30T11:48:29;97243.25;;;19.93;76.62
11936;BME280;6027;48.576;9.180;2022-10-30T11:51:00;97244.91;;;19.94;75.47
11936;BME280;6027;48.576;9.180;2022-10-30T11:53:32;97224.44;;;20.05;78.66
11936;BME280;6027;48.576;9.180;2022-10-30T11:56:02;97239.06;;;19.97;72.21
11936;BME280;6027;48.576;9.180;2022-10-30T11:58:32;97230.53;;;20.12;71.46
11936;BME280;6027;48.576;9.180;2022-10-30T12:01:03;97233.09;;;20.07;70.74
11936;BME280;6027;48.576;9.180;2022-10-30T12:03:35;97228.41;;;20.02;72.43
11936;BME280;6027;48.576;9.180;2022-10-30T12:06:16;97235.78;;;20.07;73.81
11936;BME280;6027;48.576;9.180;2022-10-30T12:09:03;97229.25;;;20.15;75.82
11936;BME280;6027;48.576;9.180;2022-10-30T12:11:31;97224.69;;;20.15;74.10
11936;BME280;6027;48.576;9.180;2022-10-30T12:13:57;97225.97;;;20.13;75.30
11936;BME280;6027;48.576;9.180;2022-10-30T12:16:25;97216.50;;;20.10;75.79
11936;BME280;6027;48.576;9.180;2022-10-30T12:19:03;97210.88;;;20.23;77.34
11936;BME280;6027;48.576;9.180;2022-10-30T12:21:35;97206.94;;;20.38;75.82
11936;BME280;6027;48.576;9.180;2022-10-30T12:24:04;97207.38;;;20.46;79.06
11936;BME280;6027;48.576;9.180;2022-10-30T12:26:34;97204.69;;;20.46;78.12
11936;BME280;6027;48.576;9.180;2022-10-30T12:29:04;97200.47;;;20.50;79.53
11936;BME280;6027;48.576;9.180;2022-10-30T12:31:40;97198.00;;;20.49;78.21
11936;BME280;6027;48.576;9.180;2022-10-30T12:34:14;97193.44;;;20.49;80.59
11936;BME280;6027;48.576;9.180;2022-10-30T12:36:57;97199.75;;;20.55;79.09
11936;BME280;6027;48.576;9.180;2022-10-30T12:39:46;97196.09;;;20.61;79.10
11936;BME280;6027;48.576;9.180;2022-10-30T12:44:44;97201.38;;;20.67;79.05
11936;BME280;6027;48.576;9.180;2022-10-30T12:47:44;97198.72;;;20.84;80.71
11936;BME280;6027;48.576;9.180;2022-10-30T12:50:48;97202.94;;;20.92;79.14
11936;BME280;6027;48.576;9.180;2022-10-30T12:53:32;97197.06;;;20.95;80.85
11936;BME280;6027;48.576;9.180;2022-10-30T12:56:04;97197.00;;;21.07;80.18
11936;BME280;6027;48.576;9.180;2022-10-30T13:01:37;97181.97;;;21.22;78.71
11936;BME280;6027;48.576;9.180;2022-10-30T13:04:24;97182.06;;;21.27;80.16
11936;BME280;6027;48.576;9.180;2022-10-30T13:07:16;97174.97;;;21.38;78.19
11936;BME280;6027;48.576;9.180;2022-10-30T13:09:55;97179.72;;;21.48;80.31
11936;BME280;6027;48.576;9.180;2022-10-30T13:12:25;97172.81;;;21.52;80.82
11936;BME280;6027;48.576;9.180;2022-10-30T13:14:56;97174.09;;;21.49;75.16
11936;BME280;6027;48.576;9.180;2022-10-30T13:17:23;97180.06;;;21.34;72.19
11936;BME280;6027;48.576;9.180;2022-10-30T13:19:49;97184.28;;;21.30;74.88
11936;BME280;6027;48.576;9.180;2022-10-30T13:22:22;97179.88;;;21.41;74.99
11936;BME280;6027;48.576;9.180;2022-10-30T13:27:44;97174.72;;;21.40;74.74
11936;BME280;6027;48.576;9.180;2022-10-30T13:30:20;97175.66;;;21.45;74.72
11936;BME280;6027;48.576;9.180;2022-10-30T13:40:55;97175.88;;;21.27;74.43
11936;BME280;6027;48.576;9.180;2022-10-30T13:43:28;97182.16;;;21.32;73.62
11936;BME280;6027;48.576;9.180;2022-10-30T13:46:11;97182.16;;;21.32;72.48
11936;BME280;6027;48.576;9.180;2022-10-30T13:51:44;97186.34;;;21.12;72.53
11936;BME280;6027;48.576;9.180;2022-10-30T13:54:25;97182.31;;;21.26;72.43
11936;BME280;6027;48.576;9.180;2022-10-30T13:56:55;97186.53;;;21.22;72.58
11936;BME280;6027;48.576;9.180;2022-10-30T13:59:51;97181.59;;;21.19;73.96
11936;BME280;6027;48.576;9.180;2022-10-30T14:15:53;97188.41;;;21.50;69.67
11936;BME280;6027;48.576;9.180;2022-10-30T14:18:24;97177.84;;;21.48;71.31
11936;BME280;6027;48.576;9.180;2022-10-30T14:20:51;97186.41;;;21.45;70.96
11936;BME280;6027;48.576;9.180;2022-10-30T14:23:36;97183.81;;;21.50;69.55
11936;BME280;6027;48.576;9.180;2022-10-30T14:28:28;97183.97;;;21.44;70.23
11936;BME280;6027;48.576;9.180;2022-10-30T14:31:02;97185.75;;;21.38;69.42
11936;BME280;6027;48.576;9.180;2022-10-30T14:33:53;97182.66;;;21.29;70.86
11936;BME280;6027;48.576;9.180;2022-10-30T14:36:46;97185.00;;;21.26;70.86
11936;BME280;6027;48.576;9.180;2022-10-30T14:50:12;97188.31;;;21.16;72.79
11936;BME280;6027;48.576;9.180;2022-10-30T14:52:58;97188.47;;;21.10;73.98
11936;BME280;6027;48.576;9.180;2022-10-30T14:55:33;97194.91;;;21.09;74.39
11936;BME280;6027;48.576;9.180;2022-10-30T15:08:40;97202.16;;;21.08;77.83
11936;BME280;6027;48.576;9.180;2022-10-30T15:13:58;97192.91;;;21.04;80.99
11936;BME280;6027;48.576;9.180;2022-10-30T15:16:26;97195.75;;;20.97;80.06
11936;BME280;6027;48.576;9.180;2022-10-30T15:18:59;97197.56;;;20.92;79.23
11936;BME280;6027;48.576;9.180;2022-10-30T15:21:27;97193.59;;;20.83;77.95